createdAt,value
2018-12-15T00:04:20.579Z,77.29
2018-12-15T00:09:41.571Z,77.68
2018-12-15T00:14:43.887Z,75.50
2018-12-15T00:19:46.145Z,76.03
2018-12-15T00:24:48.609Z,74.74
2018-12-15T00:29:50.913Z,74.56
2018-12-15T00:34:53.163Z,74.50
2018-12-15T00:39:55.529Z,74.92
2018-12-15T00:44:57.815Z,75.22
2018-12-15T00:50:00.045Z,78.79
2018-12-15T00:55:02.526Z,82.03
2018-12-15T01:00:05.087Z,82.18
2018-12-15T01:05:07.418Z,82.80
2018-12-15T01:10:09.645Z,83.31
2018-12-15T01:15:12.004Z,84.00
2018-12-15T01:20:14.281Z,84.69
2018-12-15T01:25:16.556Z,84.50
2018-12-15T01:30:18.870Z,84.99
2018-12-15T01:35:21.145Z,84.33
2018-12-15T01:40:23.383Z,84.58
2018-12-15T01:45:25.600Z,85.45
2018-12-15T01:50:27.810Z,84.72
2018-12-15T01:55:30.205Z,86.50
2018-12-15T02:00:32.483Z,86.75
2018-12-15T02:05:34.675Z,86.81
2018-12-15T02:10:37.073Z,87.75
2018-12-15T02:15:39.375Z,88.04
2018-12-15T02:20:41.847Z,88.45
2018-12-15T02:25:44.225Z,88.42
2018-12-15T02:30:47.697Z,89.33
2018-12-15T02:35:50.371Z,89.37
2018-12-15T02:40:52.593Z,89.18
2018-12-15T02:45:54.913Z,90.01
2018-12-15T02:50:57.169Z,88.77
2018-12-15T02:55:59.426Z,89.90
2018-12-15T03:01:03.151Z,88.95
2018-12-15T03:06:06.595Z,89.64
2018-12-15T03:11:08.822Z,88.39
2018-12-15T03:16:11.080Z,89.50
2018-12-15T03:21:13.357Z,89.85
2018-12-15T03:26:15.567Z,90.20
2018-12-15T03:31:17.889Z,89.69
2018-12-15T03:36:20.167Z,89.10
2018-12-15T03:41:22.517Z,89.20
2018-12-15T03:46:25.797Z,89.31
2018-12-15T03:51:28.149Z,88.79
2018-12-15T03:56:31.125Z,88.49
2018-12-15T04:01:33.634Z,88.90
2018-12-15T04:06:35.951Z,89.15
2018-12-15T04:11:38.202Z,88.66
2018-12-15T04:16:40.661Z,87.85
2018-12-15T04:21:42.887Z,87.42
2018-12-15T04:26:45.124Z,88.00
2018-12-15T04:31:49.432Z,87.74
2018-12-15T04:36:51.632Z,88.30
2018-12-15T04:41:53.843Z,88.11
2018-12-15T04:46:56.538Z,87.50
2018-12-15T04:51:58.721Z,87.53
2018-12-15T04:57:00.913Z,87.17
2018-12-15T05:02:03.419Z,87.17
2018-12-15T05:07:05.744Z,86.16
2018-12-15T05:12:08.055Z,86.36
2018-12-15T05:17:10.475Z,85.36
2018-12-15T05:22:13.238Z,85.05
2018-12-15T05:27:15.801Z,85.01
2018-12-15T05:32:18.077Z,85.88
2018-12-15T05:37:20.351Z,84.24
2018-12-15T05:42:22.594Z,84.07
2018-12-15T05:47:24.840Z,85.00
2018-12-15T05:52:27.213Z,83.99
2018-12-15T05:57:29.471Z,84.97
2018-12-15T06:02:32.159Z,84.20
2018-12-15T06:07:34.562Z,84.30
2018-12-15T06:12:36.928Z,83.50
2018-12-15T06:17:39.519Z,83.87
2018-12-15T06:22:41.724Z,82.66
2018-12-15T06:27:44.079Z,82.56
2018-12-15T06:32:46.420Z,81.47
2018-12-15T06:37:48.779Z,81.75
2018-12-15T06:42:53.249Z,82.21
2018-12-15T06:47:55.451Z,82.24
2018-12-15T06:52:58.504Z,81.88
2018-12-15T06:58:00.825Z,81.17
2018-12-15T07:03:03.062Z,81.51
2018-12-15T07:08:05.343Z,81.54
2018-12-15T07:13:07.685Z,81.97
2018-12-15T07:18:11.232Z,81.98
2018-12-15T07:23:13.549Z,81.84
2018-12-15T07:28:15.917Z,82.05
2018-12-15T07:33:18.158Z,82.38
2018-12-15T07:38:20.430Z,82.01
2018-12-15T07:43:22.703Z,82.84
2018-12-15T07:48:24.978Z,83.05
2018-12-15T07:53:27.467Z,81.95
2018-12-15T07:58:29.776Z,82.20
2018-12-15T08:03:32.023Z,82.15
2018-12-15T08:08:34.347Z,81.78
2018-12-15T08:13:36.848Z,81.19
2018-12-15T08:18:39.118Z,81.13
2018-12-15T08:23:41.791Z,78.33
2018-12-15T08:28:44.191Z,79.15
2018-12-15T08:33:46.785Z,80.62
2018-12-15T08:38:49.164Z,79.95
2018-12-15T08:43:52.014Z,79.87
2018-12-15T08:48:54.249Z,79.11
2018-12-15T08:53:56.510Z,79.63
2018-12-15T08:58:58.748Z,80.37
2018-12-15T09:04:00.994Z,80.21
2018-12-15T09:09:05.409Z,80.12
2018-12-15T09:14:07.842Z,80.14
2018-12-15T09:19:11.386Z,80.01
2018-12-15T09:24:14.054Z,80.66
2018-12-15T09:29:17.168Z,80.00
2018-12-15T09:34:19.846Z,79.76
2018-12-15T09:39:22.118Z,80.30
2018-12-15T09:44:24.358Z,80.12
2018-12-15T09:49:26.729Z,79.77
2018-12-15T09:54:29.125Z,80.05
2018-12-15T09:59:33.109Z,80.52
2018-12-15T10:04:35.468Z,79.17
2018-12-15T10:09:38.112Z,80.22
2018-12-15T10:14:40.484Z,79.36
2018-12-15T10:19:43.191Z,78.27
2018-12-15T10:24:45.418Z,79.43
2018-12-15T10:29:53.553Z,78.50
2018-12-15T10:34:55.961Z,78.40
2018-12-15T10:39:58.377Z,79.04
2018-12-15T10:45:00.647Z,78.30
2018-12-15T10:50:03.602Z,77.38
2018-12-15T10:55:09.308Z,78.70
2018-12-15T11:00:19.052Z,77.69
2018-12-15T11:05:23.723Z,77.87
2018-12-15T11:10:26.045Z,77.55
2018-12-15T11:15:28.371Z,78.13
2018-12-15T11:20:30.621Z,78.95
2018-12-15T11:25:32.888Z,78.61
2018-12-15T11:30:35.279Z,78.56
2018-12-15T11:35:37.502Z,78.56
2018-12-15T11:40:40.361Z,78.18
2018-12-15T11:45:42.729Z,78.29
2018-12-15T11:50:45.003Z,79.37
2018-12-15T11:55:47.229Z,79.07
2018-12-15T12:00:49.497Z,79.70
2018-12-15T12:05:51.798Z,79.51
2018-12-15T12:10:55.194Z,80.51
2018-12-15T12:15:57.717Z,80.99
2018-12-15T12:21:00.793Z,80.54
2018-12-15T12:26:03.093Z,81.21
2018-12-15T12:31:05.389Z,80.38
2018-12-15T12:36:07.638Z,80.54
2018-12-15T12:41:11.005Z,81.38
2018-12-15T12:46:15.065Z,80.25
2018-12-15T12:51:17.741Z,80.70
2018-12-15T12:56:22.842Z,82.03
2018-12-15T13:01:25.259Z,81.44
2018-12-15T13:06:27.508Z,81.53
2018-12-15T13:11:32.806Z,82.16
2018-12-15T13:16:35.134Z,81.49
2018-12-15T13:21:37.527Z,80.86
2018-12-15T13:26:39.864Z,82.39
2018-12-15T13:31:42.538Z,81.76
2018-12-15T13:36:45.022Z,82.00
2018-12-15T13:41:47.814Z,81.62
2018-12-15T13:46:50.676Z,82.83
2018-12-15T13:51:53.275Z,82.24
2018-12-15T13:56:55.587Z,82.25
2018-12-15T14:01:57.983Z,83.18
2018-12-15T14:07:00.289Z,83.30
2018-12-15T14:12:02.548Z,83.08
2018-12-15T14:17:04.874Z,84.82
2018-12-15T14:22:07.229Z,84.55
2018-12-15T14:27:09.502Z,85.17
2018-12-15T14:32:11.738Z,84.50
2018-12-15T14:37:13.961Z,85.50
2018-12-15T14:42:16.261Z,84.46
2018-12-15T14:47:18.591Z,85.37
2018-12-15T14:52:20.819Z,85.51
2018-12-15T14:57:24.966Z,85.09
2018-12-15T15:02:27.203Z,84.67
2018-12-15T15:07:29.489Z,84.89
2018-12-15T15:12:31.709Z,83.98
2018-12-15T15:17:34.038Z,84.12
2018-12-15T15:22:36.437Z,84.46
2018-12-15T15:27:38.697Z,83.67
2018-12-15T15:32:40.972Z,84.50
2018-12-15T15:37:43.223Z,84.51
2018-12-15T15:42:45.513Z,83.78
2018-12-15T15:47:47.834Z,84.53
2018-12-15T15:52:50.119Z,85.02
2018-12-15T15:57:52.463Z,84.40
2018-12-15T16:02:55.764Z,84.82
2018-12-15T16:07:58.014Z,85.00
2018-12-15T16:13:00.267Z,85.46
2018-12-15T16:18:02.714Z,85.43
2018-12-15T16:23:05.094Z,85.15
2018-12-15T16:28:07.564Z,84.77
2018-12-15T16:33:09.821Z,84.65
2018-12-15T16:38:12.149Z,84.75
2018-12-15T16:43:14.392Z,86.06
2018-12-15T16:48:16.846Z,85.36
2018-12-15T16:53:19.088Z,85.78
2018-12-15T16:58:21.359Z,86.45
2018-12-15T17:03:30.388Z,86.25
2018-12-15T17:08:28.958Z,86.30
2018-12-15T17:13:31.212Z,85.87
2018-12-15T17:18:33.567Z,87.05
2018-12-15T17:23:37.147Z,87.64
2018-12-15T17:28:39.464Z,87.29
2018-12-15T17:33:41.727Z,88.25
2018-12-15T17:38:44.105Z,88.18
2018-12-15T17:43:46.354Z,88.39
2018-12-15T17:48:48.749Z,88.50
2018-12-15T17:53:51.102Z,89.32
2018-12-15T17:58:53.389Z,89.23
2018-12-15T18:03:55.719Z,88.64
2018-12-15T18:08:57.992Z,89.96
2018-12-15T18:14:00.238Z,89.05
2018-12-15T18:19:02.523Z,89.79
2018-12-15T18:24:04.800Z,89.08
2018-12-15T18:29:07.749Z,89.21
2018-12-15T18:34:09.998Z,90.72
2018-12-15T18:39:12.561Z,90.89
2018-12-15T18:44:14.813Z,91.75
2018-12-15T18:49:17.070Z,92.31
2018-12-15T18:54:19.389Z,92.48
2018-12-15T18:59:22.037Z,91.94
2018-12-15T19:04:24.281Z,92.45
2018-12-15T19:09:26.586Z,91.95
2018-12-15T19:14:28.909Z,92.15
2018-12-15T19:19:31.162Z,92.25
2018-12-15T19:24:33.421Z,91.74
2018-12-15T19:29:35.734Z,91.97
2018-12-15T19:34:37.988Z,91.80
2018-12-15T19:39:40.253Z,92.33
2018-12-15T19:44:42.556Z,92.11
2018-12-15T19:49:44.818Z,91.12
2018-12-15T19:54:47.081Z,92.00
2018-12-15T19:59:49.461Z,91.83
2018-12-15T20:04:51.855Z,91.75
2018-12-15T20:09:54.071Z,91.20
2018-12-15T20:14:56.365Z,91.78
2018-12-15T20:19:58.646Z,92.45
2018-12-15T20:25:00.944Z,90.91
2018-12-15T20:30:04.089Z,92.29
2018-12-15T20:35:06.894Z,91.90
2018-12-15T20:40:09.383Z,92.15
2018-12-15T20:45:11.788Z,91.83
2018-12-15T20:50:14.222Z,91.56
2018-12-15T20:55:16.537Z,92.05
2018-12-15T21:00:18.898Z,92.26
2018-12-15T21:05:21.438Z,92.04
2018-12-15T21:10:23.677Z,91.80
2018-12-15T21:15:28.802Z,92.13
2018-12-15T21:20:31.047Z,91.31
2018-12-15T21:25:34.679Z,90.98
2018-12-15T21:30:36.946Z,92.10
2018-12-15T21:35:39.206Z,91.50
2018-12-15T21:40:41.535Z,90.76
2018-12-15T21:45:43.817Z,91.12
2018-12-15T21:50:46.038Z,91.49
2018-12-15T21:55:48.332Z,92.13
2018-12-15T22:00:51.677Z,91.03
2018-12-15T22:05:54.036Z,91.44
2018-12-15T22:10:56.431Z,91.93
2018-12-15T22:15:58.714Z,91.85
2018-12-15T22:21:01.140Z,91.08
2018-12-15T22:26:03.630Z,91.47
2018-12-15T22:31:05.904Z,91.58
2018-12-15T22:36:08.351Z,91.18
2018-12-15T22:41:10.670Z,90.91
2018-12-15T22:46:13.057Z,90.87
2018-12-15T22:51:15.364Z,91.21
2018-12-15T22:56:24.545Z,91.29
2018-12-15T23:01:28.885Z,90.44
2018-12-15T23:06:39.927Z,89.79
2018-12-15T23:11:42.204Z,90.57
2018-12-15T23:16:44.615Z,91.13
2018-12-15T23:21:46.846Z,89.67
2018-12-15T23:26:49.126Z,90.64
2018-12-15T23:31:51.432Z,89.95
2018-12-15T23:36:53.702Z,90.23
2018-12-15T23:41:56.076Z,90.89
2018-12-15T23:46:58.318Z,90.34
2018-12-15T23:52:00.551Z,89.91
2018-12-15T23:57:02.971Z,90.31
